Airfield :
LOGIN :

Register | Disclaimer

   EN    FR    IT 

 










Legend :    VFR   Marginal VFR   IFR   Intensive IFR   Very Intensive IFR
Visi :
Ceiling :
>= 8 km
>= 3000ft
5 to 8 km
1000 to 3000 ft
1500m to 5 km
500 to 1000 ft
800 to 1500m
200 to 500 ft
< 800m
< 200 ft
Symbols :   Thunderstorms  Fog  Heavy snow  Heavy precipitations  Wind > 20 kt
SIGMETs :     Misc.  Thunderstorms  Icing  Turbulence  Mountain Waves  Volcanic Ashes







- Airport Elevation : 330 ft
- IATA code : LVA
- Download approach charts


LFOV - Laval-Entrammes

CURRENT METAR :
  • 251130Z AUTO 03015KT 9999 BKN035 OVC047 11/04 Q1031

EXPIRED METARs :
  • 251100Z AUTO 02015KT 9999 FEW037 BKN048 BKN054 11/05 Q1031
  • 251030Z AUTO 02015KT 340V040 9999 BKN027 BKN033 OVC044 09/04 Q1031
  • 251000Z AUTO 02011KT 360V060 9999 FEW023 BKN031 BKN037 10/05 Q1031
  • 250930Z AUTO 02012KT 9999 BKN022 BKN033 BKN042 10/05 Q1031
  • 250900Z AUTO 03006KT 350V070 9999 BKN020 09/07 Q1031

TAF N/A
No reported NOTAMs for that airfield.



MET'MAP, your aeronautical weather chart ! - Copyright ORBIFLY December 2007 - Disclaimer

ORBIFLY MET'MAP TEAM :

Programming & Development : Alexandra Zaïnal
Concept & Development : Baudouin d'Aumeries
Co-Development & Prog : Marc-Olivier Méhu
Technical & hardware support : Manuel Goepfert

Contact : metmap@orbifly.com




SOURCES & CREDITS :

   NOAA